Time;durP1;ratioP1;P1;durP2;ratioP2;P2;SDS_P1;SDS_P2;PMS_P1;PMS_P2;Temp;Humidity;BMP_temperature;BMP_pressure;BME280_temperature;BME280_humidity;BME280_pressure;Samples;Min_cycle;Max_cycle;Signal;HPM_P1;HPM_P2
2020/12/23 00:01:45;;;;;;;11.63;5.20;;;;;;;27.45;34.85;96740.56;4953185;28;20054;-32
2020/12/23 00:04:12;;;;;;;9.65;4.97;;;;;;;27.44;34.84;96736.25;4958470;28;20042;-34
2020/12/23 00:06:37;;;;;;;10.77;5.10;;;;;;;27.21;34.75;96701.66;4963431;28;20066;-39
2020/12/23 00:09:03;;;;;;;10.80;5.28;;;;;;;27.42;34.70;96740.75;4957715;28;20118;-34
2020/12/23 00:11:29;;;;;;;11.50;5.35;;;;;;;27.42;34.71;96740.75;4957838;28;20035;-32
2020/12/23 00:13:55;;;;;;;8.88;4.85;;;;;;;27.45;34.64;96740.56;4957013;28;20050;-34
2020/12/23 00:16:21;;;;;;;9.75;4.95;;;;;;;27.45;34.65;96737.91;4957697;28;20889;-33
2020/12/23 00:18:46;;;;;;;9.48;4.60;;;;;;;27.44;34.64;96742.34;4956747;28;20041;-35
2020/12/23 00:21:12;;;;;;;10.05;4.60;;;;;;;27.42;34.61;96735.50;4956614;28;20047;-32
2020/12/23 00:23:38;;;;;;;10.82;4.50;;;;;;;27.43;34.73;96732.78;4962120;28;20043;-34
2020/12/23 00:26:06;;;;;;;11.30;4.82;;;;;;;27.44;34.67;96728.34;4961692;28;20039;-35
2020/12/23 00:28:32;;;;;;;9.55;4.88;;;;;;;27.46;34.68;96721.22;4960328;28;20046;-35
2020/12/23 00:30:57;;;;;;;12.48;4.80;;;;;;;27.46;34.54;96726.47;4953842;28;20053;-33
2020/12/23 00:33:23;;;;;;;10.02;4.45;;;;;;;27.45;34.68;96727.41;4959511;28;20565;-36
2020/12/23 00:35:49;;;;;;;8.52;4.45;;;;;;;27.47;34.76;96730.78;4956826;28;20054;-34
2020/12/23 00:38:14;;;;;;;9.00;4.50;;;;;;;27.46;34.62;96727.31;4958828;28;20046;-36
2020/12/23 00:40:40;;;;;;;8.35;4.50;;;;;;;27.47;34.64;96728.16;4953135;28;20050;-34
2020/12/23 00:43:05;;;;;;;8.00;4.20;;;;;;;27.48;34.66;96721.94;4960902;28;20047;-35
2020/12/23 00:45:31;;;;;;;10.80;4.45;;;;;;;27.50;34.51;96717.47;4952950;28;20050;-32
2020/12/23 00:47:57;;;;;;;8.65;3.88;;;;;;;27.49;34.44;96716.59;4957391;28;20042;-36
2020/12/23 00:50:23;;;;;;;10.13;4.07;;;;;;;27.50;34.46;96720.09;4962398;28;20035;-38
2020/12/23 00:52:48;;;;;;;8.48;4.00;;;;;;;27.50;34.33;96718.28;4961678;28;20661;-38
2020/12/23 00:55:14;;;;;;;9.38;4.50;;;;;;;27.52;34.58;96726.09;4960891;28;20039;-36
2020/12/23 00:57:40;;;;;;;8.35;4.05;;;;;;;27.54;34.39;96718.97;4954756;28;20444;-33
2020/12/23 01:00:05;;;;;;;9.15;4.40;;;;;;;27.55;34.40;96722.41;4957841;28;20081;-31
2020/12/23 01:02:31;;;;;;;8.60;4.03;;;;;;;27.56;34.28;96717.06;4956428;28;20053;-35
2020/12/23 01:04:56;;;;;;;8.35;3.95;;;;;;;27.57;34.13;96726.66;4954504;28;20129;-34
2020/12/23 01:07:22;;;;;;;8.45;4.25;;;;;;;27.58;34.27;96720.44;4957234;28;20049;-35
2020/12/23 01:09:47;;;;;;;9.95;3.70;;;;;;;27.57;34.56;96724.00;4961861;28;20054;-40
2020/12/23 01:12:13;;;;;;;7.40;3.90;;;;;;;27.58;34.32;96727.50;4954642;28;20121;-37
2020/12/23 01:14:39;;;;;;;8.63;4.30;;;;;;;27.58;34.28;96724.88;4963370;28;20055;-34
2020/12/23 01:17:04;;;;;;;7.53;3.50;;;;;;;27.58;34.35;96725.69;4957704;28;20086;-32
2020/12/23 01:19:30;;;;;;;7.75;3.60;;;;;;;27.57;34.18;96726.66;4958598;28;20636;-39
2020/12/23 01:21:55;;;;;;;9.55;4.00;;;;;;;27.58;34.20;96724.88;4956579;28;20046;-32
2020/12/23 01:24:21;;;;;;;6.63;3.30;;;;;;;27.57;34.25;96724.00;4961228;28;20110;-33
2020/12/23 01:26:48;;;;;;;8.70;4.03;;;;;;;27.56;34.15;96719.69;4954412;28;20074;-34
2020/12/23 01:29:14;;;;;;;7.95;3.80;;;;;;;27.56;34.22;96724.97;4977515;28;20094;-33
2020/12/23 01:31:43;;;;;;;8.07;3.60;;;;;;;27.56;34.36;96718.84;4975942;28;20464;-33
2020/12/23 01:34:08;;;;;;;6.90;3.70;;;;;;;27.57;34.33;96713.50;4956834;28;20464;-37
2020/12/23 01:36:34;;;;;;;6.38;3.20;;;;;;;27.57;34.18;96724.00;4962542;28;20554;-33
2020/12/23 01:39:00;;;;;;;7.15;3.55;;;;;;;27.59;34.26;96721.28;4961504;28;20042;-33
2020/12/23 01:41:25;;;;;;;7.88;3.75;;;;;;;27.59;34.26;96727.41;4958970;28;20088;-34
2020/12/23 01:43:55;;;;;;;5.72;3.22;;;;;;;27.59;34.20;96727.41;4958072;28;20709;-34
2020/12/23 01:46:29;;;;;;;6.10;3.45;;;;;;;27.58;34.31;96725.69;4955491;28;20047;-34
2020/12/23 01:48:54;;;;;;;6.07;3.30;;;;;;;27.57;34.12;96718.75;4952726;28;20035;-34
2020/12/23 01:51:20;;;;;;;8.65;3.50;;;;;;;27.57;34.22;96721.38;4962266;28;20078;-36
2020/12/23 01:53:47;;;;;;;7.90;3.20;;;;;;;27.58;34.04;96712.53;4954743;28;20113;-32
2020/12/23 01:56:12;;;;;;;6.10;3.22;;;;;;;27.59;34.14;96708.13;4937407;28;20055;-35
2020/12/23 01:58:37;;;;;;;5.57;3.03;;;;;;;27.58;34.21;96699.38;4969687;28;20047;-37
2020/12/23 02:01:03;;;;;;;7.03;3.13;;;;;;;27.58;34.19;96704.63;4952078;28;20728;-32
2020/12/23 02:03:28;;;;;;;6.85;3.30;;;;;;;27.58;34.17;96717.81;4944338;28;20345;-32
2020/12/23 02:05:55;;;;;;;6.20;3.10;;;;;;;27.58;34.24;96707.28;4956949;28;20053;-34
2020/12/23 02:08:21;;;;;;;9.00;3.33;;;;;;;27.57;34.27;96702.97;4941444;28;20035;-32
2020/12/23 02:10:48;;;;;;;5.40;3.38;;;;;;;27.57;34.27;96702.97;4960761;28;20042;-33
2020/12/23 02:13:14;;;;;;;6.78;3.13;;;;;;;27.58;34.14;96704.63;4942838;28;20038;-35
2020/12/23 02:15:40;;;;;;;5.68;3.20;;;;;;;27.59;34.12;96694.97;4964994;28;20047;-31
2020/12/23 02:18:06;;;;;;;5.75;2.90;;;;;;;27.60;34.01;96704.56;4961523;28;20054;-32
2020/12/23 02:20:32;;;;;;;6.88;3.42;;;;;;;27.60;34.04;96700.16;4963058;28;20528;-35
2020/12/23 02:22:58;;;;;;;5.25;3.00;;;;;;;27.58;34.11;96693.28;4951736;28;20049;-37
2020/12/23 02:25:23;;;;;;;4.22;2.47;;;;;;;27.56;34.19;96690.75;4963011;28;20459;-37
2020/12/23 02:27:49;;;;;;;5.90;2.78;;;;;;;27.57;34.18;96692.44;4962244;28;20042;-36
2020/12/23 02:30:15;;;;;;;4.95;2.72;;;;;;;27.56;34.11;96690.75;4958282;28;20035;-37
2020/12/23 02:32:40;;;;;;;5.32;2.80;;;;;;;27.56;34.12;96688.13;4950229;28;20063;-35
2020/12/23 02:35:08;;;;;;;6.68;2.78;;;;;;;27.55;34.18;96689.06;4950955;28;20038;-33
2020/12/23 02:37:33;;;;;;;5.50;2.70;;;;;;;27.54;34.16;96682.13;4965933;28;20626;-33
2020/12/23 02:39:59;;;;;;;5.70;3.10;;;;;;;27.55;34.15;96668.00;4970312;28;20051;-34
2020/12/23 02:42:25;;;;;;;5.85;2.85;;;;;;;27.56;34.23;96671.47;4962601;28;20416;-34
2020/12/23 02:44:51;;;;;;;4.55;2.55;;;;;;;27.55;34.26;96672.41;4963501;28;20050;-35
2020/12/23 02:47:17;;;;;;;3.78;2.40;;;;;;;27.55;34.17;96657.47;4960538;28;20035;-34
2020/12/23 02:49:43;;;;;;;4.18;2.58;;;;;;;27.54;34.15;96655.78;4958522;28;20047;-34
2020/12/23 02:52:08;;;;;;;6.13;2.85;;;;;;;27.55;34.19;96656.63;4961440;28;20045;-35
2020/12/23 02:54:34;;;;;;;6.43;2.65;;;;;;;27.55;33.92;96646.94;4974287;28;20055;-33
2020/12/23 02:57:00;;;;;;;3.90;2.40;;;;;;;27.55;34.06;96646.94;4964919;28;20117;-34
2020/12/23 02:59:26;;;;;;;4.68;2.72;;;;;;;27.55;34.07;96652.22;4954157;28;20058;-37
2020/12/23 03:01:52;;;;;;;5.82;2.47;;;;;;;27.54;34.04;96645.25;4958813;28;20101;-37
2020/12/23 03:04:17;;;;;;;4.50;2.90;;;;;;;27.53;34.10;96649.69;4956168;28;20059;-33
2020/12/23 03:06:43;;;;;;;4.70;2.35;;;;;;;27.53;34.08;96638.28;4956432;28;20983;-34
2020/12/23 03:09:10;;;;;;;3.65;2.38;;;;;;;27.51;34.14;96640.19;4959138;28;20045;-32
2020/12/23 03:11:35;;;;;;;4.45;2.65;;;;;;;27.54;34.18;96645.25;4965187;28;20097;-33
2020/12/23 03:14:01;;;;;;;5.25;2.30;;;;;;;27.52;34.19;96645.34;4954504;28;20034;-35
2020/12/23 03:16:27;;;;;;;4.60;2.42;;;;;;;27.52;34.22;96649.75;4962086;28;20640;-34
2020/12/23 03:18:53;;;;;;;3.85;2.10;;;;;;;27.51;34.28;96634.91;4957231;28;20058;-36
2020/12/23 03:21:19;;;;;;;4.85;2.40;;;;;;;27.51;34.18;96627.03;4957939;28;20062;-34
2020/12/23 03:23:44;;;;;;;4.57;2.05;;;;;;;27.52;34.10;96633.97;4959654;28;20043;-33
2020/12/23 03:26:10;;;;;;;4.80;2.10;;;;;;;27.52;34.28;96631.34;4958028;28;20101;-33
2020/12/23 03:28:35;;;;;;;5.75;2.25;;;;;;;27.50;34.11;96630.59;4961170;28;20061;-38
2020/12/23 03:31:01;;;;;;;5.45;2.60;;;;;;;27.52;34.18;96637.47;4975926;28;20027;-37
2020/12/23 03:33:27;;;;;;;4.25;2.40;;;;;;;27.52;34.21;96636.59;4961939;28;20050;-32
2020/12/23 03:35:53;;;;;;;4.05;2.22;;;;;;;27.52;34.19;96628.72;4959509;28;20121;-37
2020/12/23 03:38:19;;;;;;;4.13;2.10;;;;;;;27.49;34.17;96613.97;4953695;28;20068;-37
2020/12/23 03:40:45;;;;;;;4.93;2.10;;;;;;;27.48;33.98;96619.31;4963298;28;20189;-34
2020/12/23 03:43:12;;;;;;;4.85;2.03;;;;;;;27.48;34.16;96612.28;4960711;28;20077;-35
2020/12/23 03:45:38;;;;;;;3.90;2.28;;;;;;;27.48;34.17;96606.16;4956545;28;22382;-34
2020/12/23 03:48:04;;;;;;;2.72;2.03;;;;;;;27.51;34.19;96621.75;4957673;28;20121;-37
2020/12/23 03:50:29;;;;;;;3.35;2.13;;;;;;;27.50;34.16;96612.19;4957264;28;20089;-34
2020/12/23 03:52:55;;;;;;;5.00;1.80;;;;;;;27.49;33.91;96615.72;4962045;28;20424;-32
2020/12/23 03:55:21;;;;;;;3.97;1.98;;;;;;;27.47;34.17;96607.09;4952827;28;20049;-34
2020/12/23 03:57:46;;;;;;;6.15;2.10;;;;;;;27.48;34.29;96608.78;4962702;28;20815;-36
2020/12/23 04:00:13;;;;;;;3.33;2.00;;;;;;;27.49;34.22;96610.47;4959696;28;21097;-34
2020/12/23 04:02:39;;;;;;;2.95;1.73;;;;;;;27.49;34.10;96613.09;4950054;28;20045;-34
2020/12/23 04:05:05;;;;;;;3.80;1.98;;;;;;;27.48;34.25;96608.78;4949229;28;20047;-36
2020/12/23 04:07:31;;;;;;;4.93;2.00;;;;;;;27.48;34.18;96609.66;4958487;28;20649;-39
2020/12/23 04:09:57;;;;;;;2.40;1.58;;;;;;;27.48;34.29;96611.41;4950075;28;20051;-32
2020/12/23 04:12:23;;;;;;;2.53;1.95;;;;;;;27.47;34.41;96609.75;4961766;28;20741;-37
2020/12/23 04:14:49;;;;;;;3.00;1.73;;;;;;;27.47;34.17;96596.56;4959799;28;20077;-37
2020/12/23 04:17:15;;;;;;;3.03;1.88;;;;;;;27.48;34.23;96596.47;4959583;28;20039;-35
2020/12/23 04:19:41;;;;;;;2.88;1.70;;;;;;;27.48;34.12;96598.25;4957194;28;20800;-34
2020/12/23 04:22:07;;;;;;;3.05;1.65;;;;;;;27.48;34.18;96593.84;4959308;28;20047;-33
2020/12/23 04:24:33;;;;;;;2.50;1.63;;;;;;;27.47;34.25;96596.56;4962243;28;20050;-34
2020/12/23 04:26:59;;;;;;;2.83;1.67;;;;;;;27.48;34.17;96593.00;4958643;28;20160;-37
2020/12/23 04:29:25;;;;;;;3.50;1.80;;;;;;;27.33;34.19;96571.97;4957956;28;20112;-34
2020/12/23 04:31:51;;;;;;;4.22;2.20;;;;;;;27.47;34.22;96591.31;4958113;28;20178;-35
2020/12/23 04:34:17;;;;;;;3.20;1.60;;;;;;;27.46;34.14;96590.47;4960047;28;20082;-35
2020/12/23 04:36:43;;;;;;;3.70;1.60;;;;;;;27.49;34.22;96592.03;4974910;28;20538;-34
2020/12/23 04:39:09;;;;;;;2.67;1.50;;;;;;;27.49;34.11;96594.69;4954385;28;20042;-33
2020/12/23 04:41:34;;;;;;;2.58;1.77;;;;;;;27.49;34.17;96594.69;4964012;28;20050;-32
2020/12/23 04:44:03;;;;;;;4.60;1.65;;;;;;;27.49;34.00;96579.75;4960403;28;20126;-34
2020/12/23 04:46:29;;;;;;;3.00;1.70;;;;;;;27.50;34.09;96580.59;4958453;28;20097;-36
2020/12/23 04:48:58;;;;;;;2.75;1.80;;;;;;;27.49;34.07;96577.13;4958390;28;20086;-35
2020/12/23 04:51:34;;;;;;;3.13;1.50;;;;;;;27.51;34.18;96571.75;4958702;28;20463;-33
2020/12/23 04:54:01;;;;;;;4.70;1.77;;;;;;;27.51;34.01;96569.94;4958812;28;20062;-34
2020/12/23 04:56:27;;;;;;;3.70;1.77;;;;;;;27.51;34.05;96575.22;4957195;28;20049;-33
2020/12/23 04:58:54;;;;;;;2.30;1.60;;;;;;;27.51;34.03;96572.59;4964470;28;20050;-33
2020/12/23 05:01:19;;;;;;;3.08;1.38;;;;;;;27.51;34.07;96571.75;4951486;28;20046;-35
2020/12/23 05:03:45;;;;;;;2.72;1.40;;;;;;;27.53;33.88;96575.97;4955692;28;20038;-33
2020/12/23 05:06:11;;;;;;;3.30;1.70;;;;;;;27.53;33.88;96577.75;4973085;28;20053;-33
2020/12/23 05:08:37;;;;;;;3.92;1.33;;;;;;;27.53;33.99;96567.22;4963205;28;20037;-33
2020/12/23 05:11:06;;;;;;;2.65;1.30;;;;;;;27.53;33.88;96567.22;4961424;28;20041;-38
2020/12/23 05:13:32;;;;;;;3.85;1.60;;;;;;;27.52;33.94;96563.75;4959717;28;20193;-34
2020/12/23 05:15:58;;;;;;;2.28;1.35;;;;;;;27.53;33.91;96560.19;4955448;28;20500;-35
2020/12/23 05:18:34;;;;;;;2.95;1.55;;;;;;;27.53;34.02;96564.59;4957880;28;20039;-33
2020/12/23 05:20:59;;;;;;;5.15;1.70;;;;;;;27.53;33.86;96564.59;4950998;28;20042;-33
2020/12/23 05:23:25;;;;;;;4.95;1.60;;;;;;;27.53;34.03;96554.06;4960295;28;20046;-32
2020/12/23 05:25:52;;;;;;;2.63;1.35;;;;;;;27.55;33.92;96562.72;4959424;28;20047;-31
2020/12/23 05:28:18;;;;;;;2.30;1.50;;;;;;;27.53;33.98;96564.59;4960008;28;20031;-34
2020/12/23 05:30:43;;;;;;;3.90;1.80;;;;;;;27.53;34.05;96559.31;4956353;28;20058;-31
2020/12/23 05:33:13;;;;;;;1.95;1.27;;;;;;;27.53;34.00;96554.06;4952704;28;20413;-32
2020/12/23 05:35:38;;;;;;;1.98;1.30;;;;;;;27.53;34.02;96551.44;4973922;28;20424;-33
2020/12/23 05:38:04;;;;;;;2.08;1.40;;;;;;;27.52;33.91;96557.66;4957647;28;20042;-34
2020/12/23 05:40:30;;;;;;;3.92;1.48;;;;;;;27.52;33.91;96555.00;4960294;28;20047;-35
2020/12/23 05:42:56;;;;;;;2.10;1.38;;;;;;;27.50;34.07;96560.38;4967602;28;20141;-33
2020/12/23 05:45:22;;;;;;;2.83;1.38;;;;;;;27.51;33.88;96555.97;4964920;28;20050;-37
2020/12/23 05:47:54;;;;;;;2.15;1.15;;;;;;;27.50;33.96;96559.53;4957426;28;20049;-32
2020/12/23 05:50:21;;;;;;;2.10;1.30;;;;;;;27.50;33.85;96560.38;4966020;28;20054;-33
2020/12/23 05:52:46;;;;;;;2.17;1.20;;;;;;;27.50;33.88;96549.03;4968901;28;20122;-36
2020/12/23 05:55:16;;;;;;;1.88;1.20;;;;;;;27.50;33.94;96549.03;4957644;28;20061;-32
2020/12/23 05:57:42;;;;;;;2.30;1.30;;;;;;;27.49;34.00;96536.78;4968418;28;20038;-33
2020/12/23 06:00:08;;;;;;;2.00;1.17;;;;;;;27.49;33.90;96535.00;4959940;28;20803;-35
2020/12/23 06:02:49;;;;;;;1.27;1.05;;;;;;;27.49;33.85;96536.78;4958059;28;20129;-33
2020/12/23 06:05:15;;;;;;;1.60;0.95;;;;;;;27.49;34.02;96521.84;4947322;28;20022;-36
2020/12/23 06:07:41;;;;;;;2.20;1.10;;;;;;;27.48;33.89;96529.84;4963724;28;20038;-38
2020/12/23 06:10:06;;;;;;;2.25;1.10;;;;;;;27.47;33.97;96531.66;4963776;28;20039;-35
2020/12/23 06:12:32;;;;;;;1.58;1.13;;;;;;;27.47;33.97;96529.00;4977237;28;20101;-34
2020/12/23 06:15:00;;;;;;;2.53;1.30;;;;;;;27.46;34.03;96523.84;4965796;28;20074;-35
2020/12/23 06:17:26;;;;;;;1.55;1.08;;;;;;;27.45;34.16;96515.09;4957443;28;20078;-32
2020/12/23 06:19:56;;;;;;;1.67;0.90;;;;;;;27.46;34.02;96523.84;4957792;28;20150;-35
2020/12/23 06:22:23;;;;;;;2.60;1.08;;;;;;;27.46;34.04;96523.84;4962501;28;20043;-34
2020/12/23 06:24:48;;;;;;;1.90;1.10;;;;;;;27.46;33.93;96519.41;4958625;28;20038;-33
2020/12/23 06:27:14;;;;;;;1.80;1.30;;;;;;;27.47;34.01;96517.63;4954616;28;20398;-36
2020/12/23 06:29:41;;;;;;;2.17;1.00;;;;;;;27.47;34.03;96520.25;4953489;28;20034;-36
2020/12/23 06:32:37;;;;;;;3.10;1.13;;;;;;;27.46;34.02;96522.03;4949638;28;20138;-36
2020/12/23 06:35:03;;;;;;;2.58;1.25;;;;;;;27.46;34.09;96516.78;4965224;28;20511;-36
2020/12/23 06:37:32;;;;;;;1.75;1.02;;;;;;;27.47;33.93;96515.00;4962825;28;20054;-35
2020/12/23 06:39:58;;;;;;;2.03;1.10;;;;;;;27.47;33.95;96518.47;4954369;28;20039;-36
2020/12/23 06:42:25;;;;;;;1.63;1.08;;;;;;;27.46;33.96;96510.69;4966003;28;20034;-38
2020/12/23 06:44:50;;;;;;;1.13;0.95;;;;;;;27.48;33.97;96509.63;4956905;28;20050;-34
2020/12/23 06:47:21;;;;;;;2.08;1.15;;;;;;;27.48;33.98;96503.53;4959655;28;20043;-34
2020/12/23 06:49:47;;;;;;;1.08;0.80;;;;;;;27.47;34.04;96501.84;4960246;28;20046;-35
2020/12/23 06:52:21;;;;;;;1.92;1.27;;;;;;;27.48;33.99;96514.03;4960093;28;20043;-34
2020/12/23 06:54:50;;;;;;;1.30;1.00;;;;;;;27.48;33.97;96514.03;4956802;28;20030;-37
2020/12/23 06:57:34;;;;;;;1.33;0.80;;;;;;;27.47;33.93;96501.84;4959091;28;20054;-36
2020/12/23 07:00:08;;;;;;;2.47;0.85;;;;;;;27.46;34.04;96505.41;4955880;28;20085;-35
2020/12/23 07:02:40;;;;;;;1.42;0.90;;;;;;;27.46;34.05;96502.78;4953415;28;20039;-35
2020/12/23 07:05:05;;;;;;;1.23;0.85;;;;;;;27.44;33.98;96502.03;4956624;28;20031;-38
2020/12/23 07:07:34;;;;;;;1.45;0.82;;;;;;;27.46;33.92;96513.31;4973512;28;20122;-33
2020/12/23 07:10:12;;;;;;;3.13;0.98;;;;;;;27.46;33.88;96500.16;4952215;28;20042;-32
2020/12/23 07:12:58;;;;;;;1.63;0.93;;;;;;;27.47;33.68;96507.09;4958613;28;20050;-33
2020/12/23 07:15:31;;;;;;;0.95;0.77;;;;;;;27.48;33.96;96503.53;4964518;28;20035;-35
2020/12/23 07:18:13;;;;;;;2.55;0.90;;;;;;;27.47;33.88;96505.31;4955093;28;20486;-35
2020/12/23 07:20:45;;;;;;;2.92;0.90;;;;;;;27.47;33.86;96507.09;4957544;28;20042;-36
2020/12/23 07:23:11;;;;;;;;;;;;;;;27.49;33.81;96515.72;4965019;28;20082;-36
2020/12/23 07:25:47;;;;;;;2.20;0.70;;;;;;;27.48;34.00;96511.41;4963866;28;19925;-33
2020/12/23 07:28:14;;;;;;;1.50;0.90;;;;;;;27.47;33.89;96518.47;4963388;28;20042;-33
2020/12/23 07:30:40;;;;;;;1.33;0.95;;;;;;;27.48;33.91;96514.03;4960854;28;20173;-33
2020/12/23 07:33:12;;;;;;;1.00;0.70;;;;;;;27.47;33.87;96513.22;4956392;28;20175;-35
2020/12/23 07:35:38;;;;;;;0.90;0.75;;;;;;;27.47;33.78;96512.38;4959943;28;20105;-32
2020/12/23 07:38:04;;;;;;;1.48;0.90;;;;;;;27.46;33.92;96514.13;4958586;28;20050;-35
2020/12/23 07:40:30;;;;;;;1.63;0.90;;;;;;;27.45;33.79;96522.13;4961153;28;20093;-32
2020/12/23 07:42:56;;;;;;;1.25;0.80;;;;;;;27.24;33.70;96483.13;4963392;28;20034;-32
2020/12/23 07:45:22;;;;;;;1.48;0.90;;;;;;;27.45;33.94;96525.63;4964646;28;20026;-36
2020/12/23 07:48:04;;;;;;;6.70;1.25;;;;;;;27.45;33.76;96525.63;4958192;28;20138;-33
2020/12/23 07:50:33;;;;;;;5.68;1.27;;;;;;;27.46;33.65;96521.22;4965664;28;20038;-36
2020/12/23 07:53:17;;;;;;;5.38;1.80;;;;;;;27.42;33.81;96519.72;4957318;28;20042;-34
2020/12/23 07:55:44;;;;;;;2.00;1.50;;;;;;;27.39;33.79;96532.09;4955404;28;20097;-33
2020/12/23 07:58:09;;;;;;;6.95;1.35;;;;;;;27.39;34.02;96531.28;4954150;28;20064;-37
2020/12/23 08:00:39;;;;;;;7.38;1.20;;;;;;;27.39;34.01;96526.84;4949433;28;20583;-36
2020/12/23 08:03:08;;;;;;;5.63;1.30;;;;;;;27.37;34.01;96536.63;4953819;28;20031;-35
2020/12/23 08:05:34;;;;;;;3.13;1.17;;;;;;;27.38;33.96;96532.19;4947993;28;22540;-33
2020/12/23 08:08:00;;;;;;;1.60;1.10;;;;;;;27.38;33.85;96526.94;4952955;28;20076;-35
2020/12/23 08:10:25;;;;;;;7.30;1.63;;;;;;;27.37;34.08;96527.88;4951947;28;20167;-36
2020/12/23 08:13:02;;;;;;;4.03;1.35;;;;;;;27.39;34.03;96526.03;4955262;28;20050;-34
2020/12/23 08:15:27;;;;;;;1.65;1.10;;;;;;;27.41;34.13;96533.81;4953267;28;20035;-34
2020/12/23 08:18:06;;;;;;;5.28;1.35;;;;;;;27.38;34.03;96525.16;4953146;28;20051;-36
2020/12/23 08:20:32;;;;;;;3.42;1.10;;;;;;;27.37;34.14;96533.16;4950600;28;20193;-35
2020/12/23 08:22:58;;;;;;;1.90;1.17;;;;;;;27.38;34.22;96527.78;4955242;28;20042;-35
2020/12/23 08:25:27;;;;;;;1.85;0.93;;;;;;;27.41;34.26;96523.28;4953045;28;20046;-39
2020/12/23 08:27:59;;;;;;;2.78;1.15;;;;;;;27.35;34.07;96522.72;4951951;28;20050;-36
2020/12/23 08:30:25;;;;;;;2.20;1.15;;;;;;;27.39;34.14;96518.13;4965215;28;20584;-31
2020/12/23 08:32:56;;;;;;;2.70;1.35;;;;;;;27.38;34.19;96527.78;4952462;28;20493;-36
2020/12/23 08:35:30;;;;;;;1.45;0.98;;;;;;;27.37;34.34;96531.38;4953541;28;20049;-38
2020/12/23 08:37:55;;;;;;;2.50;1.02;;;;;;;27.36;34.23;96529.69;4951080;28;20055;-37
2020/12/23 08:40:21;;;;;;;1.65;1.10;;;;;;;27.35;33.80;96522.72;4953242;28;20140;-32
2020/12/23 08:42:53;;;;;;;3.50;1.40;;;;;;;27.37;34.04;96526.13;4952692;28;20436;-34
2020/12/23 08:45:23;;;;;;;2.42;0.88;;;;;;;27.38;34.31;96524.31;4953268;28;20130;-34
2020/12/23 08:47:49;;;;;;;1.35;1.00;;;;;;;27.37;34.46;96518.22;4951993;28;20034;-36
2020/12/23 08:50:14;;;;;;;3.20;1.20;;;;;;;27.37;34.49;96520.84;4951825;28;20050;-35
2020/12/23 08:52:45;;;;;;;2.28;0.93;;;;;;;27.37;34.42;96518.22;4952333;28;20039;-36
2020/12/23 08:55:18;;;;;;;1.05;0.80;;;;;;;27.38;34.40;96522.53;4953654;28;20053;-36
2020/12/23 08:57:43;;;;;;;1.33;0.77;;;;;;;27.41;34.34;96525.94;4953555;28;20047;-33
2020/12/23 09:00:15;;;;;;;1.50;0.85;;;;;;;27.42;34.35;96522.34;4954985;28;20042;-35
2020/12/23 09:02:40;;;;;;;1.23;1.05;;;;;;;27.42;34.48;96519.72;4966582;28;20105;-33
2020/12/23 09:05:30;;;;;;;2.67;0.90;;;;;;;27.41;34.47;96520.66;4950151;28;20050;-34
2020/12/23 09:08:08;;;;;;;3.10;0.80;;;;;;;27.41;34.47;96523.28;4952125;28;20481;-37
2020/12/23 09:10:35;;;;;;;0.75;0.68;;;;;;;27.39;34.39;96518.97;4949903;28;20034;-33
2020/12/23 09:13:04;;;;;;;1.25;0.93;;;;;;;27.38;31.01;96524.31;4957789;28;20547;-33
2020/12/23 09:15:30;;;;;;;7.55;1.48;;;;;;;27.14;29.94;96527.56;4960555;28;20074;-38
2020/12/23 09:18:25;;;;;;;2.03;1.50;;;;;;;26.80;29.27;96516.47;4966975;28;20110;-32
2020/12/23 09:20:58;;;;;;;7.10;1.88;;;;;;;26.51;29.52;96517.34;4965134;28;20046;-31
2020/12/23 09:23:24;;;;;;;4.15;1.30;;;;;;;26.27;30.09;96517.88;4953656;28;20042;-32
2020/12/23 09:25:49;;;;;;;4.30;1.33;;;;;;;26.22;31.06;96514.66;4953839;28;20605;-34
2020/12/23 09:28:15;;;;;;;2.85;1.45;;;;;;;26.25;31.44;96511.00;4956075;28;20468;-37
2020/12/23 09:30:44;;;;;;;3.13;1.55;;;;;;;26.31;31.70;96508.03;4945480;28;20089;-36
2020/12/23 09:33:14;;;;;;;1.70;1.10;;;;;;;26.39;31.91;96510.19;4954184;28;20129;-33
2020/12/23 09:35:40;;;;;;;2.95;1.23;;;;;;;26.46;31.88;96511.50;4949589;28;20743;-34
2020/12/23 09:38:07;;;;;;;3.20;1.15;;;;;;;26.51;32.06;96514.72;4954760;28;20582;-38
2020/12/23 09:40:34;;;;;;;3.85;1.00;;;;;;;26.55;32.12;96505.69;4952575;28;20058;-32
2020/12/23 09:42:59;;;;;;;3.95;1.42;;;;;;;26.59;32.21;96501.94;4953703;28;20069;-33
2020/12/23 09:45:25;;;;;;;4.07;1.10;;;;;;;26.65;32.33;96502.53;4953719;28;20504;-35
2020/12/23 09:47:51;;;;;;;5.75;1.25;;;;;;;26.64;32.36;96499.03;4959584;28;20389;-37
2020/12/23 09:50:16;;;;;;;7.28;1.10;;;;;;;26.68;32.29;96495.28;4959411;28;20596;-32
2020/12/23 09:52:42;;;;;;;5.18;1.30;;;;;;;26.70;32.37;96492.56;4952971;28;20039;-34
2020/12/23 09:55:07;;;;;;;4.13;1.55;;;;;;;26.72;32.53;96481.03;4970695;28;20046;-36
2020/12/23 09:57:34;;;;;;;5.00;1.63;;;;;;;26.74;32.68;96479.13;4954498;28;20042;-35
2020/12/23 10:00:00;;;;;;;11.23;1.67;;;;;;;26.76;32.92;96476.41;4950383;28;20043;-37
2020/12/23 10:02:25;;;;;;;9.32;1.95;;;;;;;26.78;32.89;96479.81;4958172;28;20061;-39
2020/12/23 10:04:50;;;;;;;6.40;1.58;;;;;;;26.81;32.92;96481.38;4958734;28;20047;-36
2020/12/23 10:07:19;;;;;;;10.90;2.00;;;;;;;26.83;33.25;96467.22;4974719;28;20773;-33
2020/12/23 10:09:45;;;;;;;7.55;1.17;;;;;;;26.85;33.27;96465.31;4951893;28;20633;-34
2020/12/23 10:12:10;;;;;;;4.22;1.52;;;;;;;26.89;33.43;96466.00;4960915;28;20050;-33
2020/12/23 10:14:36;;;;;;;11.30;1.67;;;;;;;26.90;33.63;96462.41;4951362;28;20062;-35
2020/12/23 10:17:02;;;;;;;2.90;1.52;;;;;;;26.93;33.72;96456.09;4952571;28;20046;-35
2020/12/23 10:19:28;;;;;;;11.10;1.40;;;;;;;26.95;33.74;96454.25;4954357;28;20665;-37
2020/12/23 10:21:53;;;;;;;9.32;1.98;;;;;;;26.97;33.97;96452.38;4957367;28;20043;-34
2020/12/23 10:24:20;;;;;;;2.53;1.30;;;;;;;26.99;33.87;96451.34;4962420;28;20423;-34
2020/12/23 10:26:50;;;;;;;20.17;1.50;;;;;;;26.98;32.92;96446.16;4965537;28;20141;-38
2020/12/23 10:29:16;;;;;;;10.35;1.30;;;;;;;26.97;33.07;96439.22;4964226;28;20066;-34
2020/12/23 10:31:41;;;;;;;12.27;1.50;;;;;;;26.94;34.26;96442.00;4962805;28;20093;-33
2020/12/23 10:34:07;;;;;;;7.22;1.30;;;;;;;26.92;35.02;96436.03;4965119;28;20709;-34
2020/12/23 10:36:32;;;;;;;5.85;1.35;;;;;;;26.91;35.10;96431.69;4954014;28;20054;-39
2020/12/23 10:38:58;;;;;;;18.77;1.77;;;;;;;26.95;35.24;96423.53;4956829;28;20062;-41
2020/12/23 10:41:24;;;;;;;12.25;1.77;;;;;;;27.02;35.56;96418.75;4954233;28;20069;-36
2020/12/23 10:43:50;;;;;;;8.68;1.60;;;;;;;27.08;35.38;96415.69;4954716;28;20035;-36
2020/12/23 10:46:15;;;;;;;8.88;1.70;;;;;;;27.16;35.72;96415.22;4956914;28;20054;-34
2020/12/23 10:48:41;;;;;;;12.00;1.70;;;;;;;27.22;35.70;96408.69;4960107;28;20039;-37
2020/12/23 10:51:07;;;;;;;5.95;1.83;;;;;;;27.26;35.59;96405.78;4955044;28;20108;-39
2020/12/23 10:53:33;;;;;;;3.65;1.58;;;;;;;27.28;35.55;96410.94;4955981;28;20043;-34
2020/12/23 10:55:59;;;;;;;10.15;1.95;;;;;;;27.29;35.72;96403.88;4953635;28;20041;-33
2020/12/23 10:58:25;;;;;;;11.40;7.43;;;;;;;27.26;35.09;96394.41;4955381;28;22733;-35
2020/12/23 11:00:51;;;;;;;18.95;16.45;;;;;;;27.09;33.16;96396.38;4953758;28;20101;-38
2020/12/23 11:03:16;;;;;;;36.38;20.13;;;;;;;26.92;32.54;96391.31;4957897;28;20039;-39
2020/12/23 11:05:42;;;;;;;32.97;22.88;;;;;;;26.80;32.60;96390.28;4955332;28;20053;-36
2020/12/23 11:08:07;;;;;;;18.10;16.15;;;;;;;26.70;32.39;96393.50;4955476;28;20218;-43
2020/12/23 11:10:33;;;;;;;17.48;14.95;;;;;;;26.63;32.23;96391.38;4952860;28;20055;-35
2020/12/23 11:12:59;;;;;;;19.08;14.35;;;;;;;26.52;32.05;96390.28;4957304;28;20039;-36
2020/12/23 11:15:24;;;;;;;16.67;12.63;;;;;;;26.52;33.02;96378.91;4953124;28;20038;-40
2020/12/23 11:17:50;;;;;;;13.65;11.75;;;;;;;26.55;33.53;96379.56;4955748;28;20054;-34
2020/12/23 11:20:16;;;;;;;15.60;10.73;;;;;;;26.63;34.16;96375.59;4957927;28;20047;-37
2020/12/23 11:22:41;;;;;;;19.27;10.00;;;;;;;26.57;34.13;96356.66;4956263;28;20121;-35
2020/12/23 11:25:06;;;;;;;15.07;9.05;;;;;;;26.77;34.43;96372.94;4953959;28;20034;-34
2020/12/23 11:27:32;;;;;;;11.35;9.20;;;;;;;26.83;34.36;96367.31;4957233;28;20073;-33
2020/12/23 11:29:58;;;;;;;13.70;8.95;;;;;;;26.90;34.22;96365.13;4958709;28;20046;-34
2020/12/23 11:32:24;;;;;;;10.32;7.85;;;;;;;26.94;34.10;96352.63;4953511;28;20047;-34